Time;durP1;ratioP1;P1;durP2;ratioP2;P2;SDS_P1;SDS_P2;PMS_P1;PMS_P2;Temp;Humidity;BMP_temperature;BMP_pressure;BME280_temperature;BME280_humidity;BME280_pressure;Samples;Min_cycle;Max_cycle;Signal;HPM_P1;HPM_P2
2021/01/26 00:00:48;;;;;;;15.35;8.65;;;;;;;1.48;52.22;100563.75;5072350;28;20032;-72
2021/01/26 00:03:13;;;;;;;17.08;9.35;;;;;;;1.53;52.18;100566.28;5071482;28;20044;-72
2021/01/26 00:05:39;;;;;;;16.33;9.23;;;;;;;1.65;51.63;100566.16;5071277;28;20039;-72
2021/01/26 00:08:05;;;;;;;19.02;9.40;;;;;;;1.54;51.63;100577.44;5071649;28;20691;-72
2021/01/26 00:10:30;;;;;;;14.82;9.18;;;;;;;1.45;51.87;100574.03;5072138;28;20020;-72
2021/01/26 00:12:56;;;;;;;19.63;10.57;;;;;;;1.70;51.78;100571.28;5070670;28;20032;-72
2021/01/26 00:15:22;;;;;;;19.55;10.57;;;;;;;1.68;51.54;100573.03;5085152;28;20418;-71
2021/01/26 00:17:47;;;;;;;15.10;9.68;;;;;;;1.72;51.43;100572.13;5071349;28;20059;-72
2021/01/26 00:20:14;;;;;;;16.48;9.65;;;;;;;1.69;51.41;100587.63;5071101;28;20035;-72
2021/01/26 00:22:41;;;;;;;16.33;9.48;;;;;;;1.70;51.62;100584.16;5086616;28;20083;-72
2021/01/26 00:25:11;;;;;;;20.70;10.18;;;;;;;1.72;51.90;100582.44;5071090;28;20025;-72
2021/01/26 00:27:37;;;;;;;24.73;10.77;;;;;;;1.65;51.85;100585.94;5067917;28;20121;-72
2021/01/26 00:30:08;;;;;;;23.42;11.20;;;;;;;1.70;51.84;100594.47;5072383;28;20866;-71
2021/01/26 00:32:34;;;;;;;17.45;10.23;;;;;;;1.75;51.80;100587.56;5070725;28;20036;-72
2021/01/26 00:34:59;;;;;;;20.25;10.05;;;;;;;1.76;51.77;100601.31;5070034;28;20546;-72
2021/01/26 00:37:25;;;;;;;20.88;11.13;;;;;;;1.75;51.77;100597.88;5071195;28;20028;-72
2021/01/26 00:39:50;;;;;;;18.98;9.43;;;;;;;1.85;51.62;100596.94;5088458;28;20060;-72
2021/01/26 00:42:16;;;;;;;17.00;10.15;;;;;;;1.82;51.54;100588.38;5070492;28;20045;-72
2021/01/26 00:44:42;;;;;;;20.63;11.23;;;;;;;1.85;51.61;100593.50;5053477;28;20693;-71
2021/01/26 00:47:08;;;;;;;22.73;11.20;;;;;;;1.78;51.87;100594.44;5069798;28;20453;-72
2021/01/26 00:49:33;;;;;;;21.15;10.50;;;;;;;1.81;51.62;100590.09;5072142;28;20543;-72
2021/01/26 00:51:59;;;;;;;25.95;11.32;;;;;;;1.86;51.48;100584.91;5069205;28;20064;-72
2021/01/26 00:54:24;;;;;;;20.40;9.90;;;;;;;1.87;51.56;100602.09;5050348;28;20033;-71
2021/01/26 00:56:50;;;;;;;17.20;10.65;;;;;;;1.82;51.44;100599.56;5070291;28;20044;-72
2021/01/26 00:59:16;;;;;;;23.30;11.50;;;;;;;1.75;51.41;100597.88;5086456;28;20031;-72
2021/01/26 01:01:42;;;;;;;19.60;10.35;;;;;;;1.78;51.57;100609.91;5066774;28;20036;-72
2021/01/26 01:04:07;;;;;;;20.95;10.93;;;;;;;1.90;51.21;100608.06;5069275;28;20024;-71
2021/01/26 01:06:33;;;;;;;19.10;10.88;;;;;;;1.84;51.42;100608.13;5090237;28;20099;-72
2021/01/26 01:08:58;;;;;;;17.90;10.65;;;;;;;1.85;51.07;100620.13;5083034;28;20470;-73
2021/01/26 01:11:24;;;;;;;23.00;11.85;;;;;;;1.80;51.44;100621.91;5069235;28;20070;-72
2021/01/26 01:13:49;;;;;;;20.52;10.18;;;;;;;1.80;51.97;100629.63;5065456;28;20035;-71
2021/01/26 01:16:15;;;;;;;17.73;9.82;;;;;;;1.80;51.77;100627.06;5068052;28;20032;-72
2021/01/26 01:18:40;;;;;;;20.25;10.73;;;;;;;1.79;51.78;100627.91;5069989;28;20045;-72
2021/01/26 01:21:06;;;;;;;17.70;10.52;;;;;;;1.69;51.68;100639.16;5052100;28;20089;-72
2021/01/26 01:23:31;;;;;;;19.48;11.30;;;;;;;1.76;51.77;100638.25;5089992;28;20024;-72
2021/01/26 01:26:00;;;;;;;18.45;10.20;;;;;;;1.76;52.02;100640.81;5068036;28;20024;-72
2021/01/26 01:28:26;;;;;;;19.35;11.05;;;;;;;1.80;51.90;100639.94;5065545;28;20490;-72
2021/01/26 01:30:55;;;;;;;20.77;11.30;;;;;;;1.83;51.69;100639.06;5071298;28;20059;-71
2021/01/26 01:33:21;;;;;;;19.63;11.20;;;;;;;1.75;52.00;100644.25;5070618;28;20375;-72
2021/01/26 01:35:47;;;;;;;17.77;11.25;;;;;;;1.78;52.01;100649.41;5073512;28;20086;-72
2021/01/26 01:38:12;;;;;;;21.88;11.38;;;;;;;1.74;52.03;100652.84;5067690;28;20785;-71
2021/01/26 01:40:38;;;;;;;20.13;10.93;;;;;;;1.76;51.92;100656.28;5084547;28;20486;-71
2021/01/26 01:43:03;;;;;;;21.58;11.10;;;;;;;1.78;51.91;100658.84;5067175;28;20111;-71
2021/01/26 01:45:29;;;;;;;19.25;11.02;;;;;;;1.86;51.99;100657.06;5068383;28;20119;-72
2021/01/26 01:48:06;;;;;;;22.65;12.07;;;;;;;1.84;51.66;100664.81;5066552;28;20029;-71
2021/01/26 01:50:36;;;;;;;23.42;11.95;;;;;;;1.88;51.53;100665.63;5083430;28;20034;-72
2021/01/26 01:53:15;;;;;;;21.90;11.25;;;;;;;1.81;51.96;100663.97;5060264;28;20067;-71
2021/01/26 01:55:47;;;;;;;22.52;12.48;;;;;;;1.86;51.83;100670.81;5066167;28;20119;-71
2021/01/26 01:58:21;;;;;;;21.27;11.98;;;;;;;1.85;51.69;100666.53;5066469;28;20032;-71
2021/01/26 02:01:09;;;;;;;23.38;12.10;;;;;;;1.73;51.73;100670.03;5067219;28;20116;-72
2021/01/26 02:03:38;;;;;;;22.40;12.23;;;;;;;1.79;52.05;100676.00;5063967;28;20039;-72
2021/01/26 02:06:04;;;;;;;21.15;11.68;;;;;;;1.84;51.93;100677.72;5082824;28;20033;-71
2021/01/26 02:08:33;;;;;;;27.55;12.38;;;;;;;1.84;52.00;100680.28;5082346;28;20462;-71
2021/01/26 02:10:58;;;;;;;27.08;12.23;;;;;;;1.77;51.75;100678.59;5070853;28;20032;-71
2021/01/26 02:13:24;;;;;;;25.23;13.23;;;;;;;1.71;52.12;100688.97;5066749;28;20043;-71
2021/01/26 02:15:56;;;;;;;22.65;12.32;;;;;;;1.70;52.08;100685.50;5067326;28;20558;-72
2021/01/26 02:18:40;;;;;;;23.92;14.13;;;;;;;1.54;52.35;100690.78;5086742;28;20064;-71
2021/01/26 02:21:43;;;;;;;23.23;11.75;;;;;;;1.59;52.19;100699.31;5068120;28;20040;-72
2021/01/26 02:24:08;;;;;;;;;;;;;;;1.55;52.03;100705.34;5082134;28;20032;-71
2021/01/26 02:26:55;;;;;;;18.42;9.75;;;;;;;1.57;52.27;100711.34;5067092;28;19912;-71
2021/01/26 02:29:29;;;;;;;19.38;10.45;;;;;;;1.54;52.39;100721.69;5045426;28;20038;-72
2021/01/26 02:32:09;;;;;;;20.70;10.73;;;;;;;1.57;52.68;100724.25;5067423;28;20052;-72
2021/01/26 02:35:15;;;;;;;23.55;11.90;;;;;;;1.70;52.33;100728.47;5065176;28;20028;-71
2021/01/26 02:38:09;;;;;;;19.63;11.25;;;;;;;1.85;51.85;100723.22;5065425;28;20054;-72
2021/01/26 02:40:43;;;;;;;23.92;12.45;;;;;;;1.77;51.80;100727.56;5090377;28;20028;-71
2021/01/26 02:43:22;;;;;;;20.88;11.30;;;;;;;1.83;51.82;100724.94;5085788;28;20048;-72
2021/01/26 02:46:02;;;;;;;28.05;13.38;;;;;;;1.82;51.82;100733.56;5080177;28;20028;-72
2021/01/26 02:48:40;;;;;;;26.80;12.52;;;;;;;1.66;51.58;100747.38;5071381;28;20048;-72
2021/01/26 02:51:22;;;;;;;29.95;13.07;;;;;;;1.67;51.99;100751.69;5086559;28;20020;-73
2021/01/26 02:54:12;;;;;;;30.55;13.68;;;;;;;1.60;52.05;100747.44;5086353;28;20032;-71
2021/01/26 02:57:06;;;;;;;31.90;12.98;;;;;;;1.72;52.00;100758.50;5071375;28;20810;-71
2021/01/26 02:59:55;;;;;;;21.77;12.02;;;;;;;1.77;51.93;100755.91;5065236;28;20489;-70
2021/01/26 03:02:23;;;;;;;24.90;12.90;;;;;;;1.68;52.13;100758.53;5089010;28;20166;-71
2021/01/26 03:05:01;;;;;;;27.17;12.35;;;;;;;1.67;52.17;100770.56;5073182;28;20028;-71
2021/01/26 03:07:31;;;;;;;23.73;13.00;;;;;;;1.65;52.17;100771.44;5086948;28;20020;-71
2021/01/26 03:10:01;;;;;;;23.52;13.13;;;;;;;1.75;52.11;100780.81;5084064;28;20043;-71
2021/01/26 03:12:34;;;;;;;29.75;14.68;;;;;;;1.67;51.98;100782.59;5071171;28;20028;-71
2021/01/26 03:15:14;;;;;;;21.77;13.00;;;;;;;1.46;52.89;100784.41;5069485;28;20040;-71
2021/01/26 03:17:49;;;;;;;25.08;13.43;;;;;;;1.44;52.88;100792.97;5069979;28;20024;-71
2021/01/26 03:20:33;;;;;;;25.70;13.05;;;;;;;1.38;53.07;100798.97;5073926;28;20031;-71
2021/01/26 03:23:22;;;;;;;24.50;11.90;;;;;;;1.49;52.92;100802.41;5087959;28;20127;-71
2021/01/26 03:25:51;;;;;;;26.55;12.48;;;;;;;1.52;52.55;100796.38;5072674;28;20466;-71
2021/01/26 03:28:21;;;;;;;25.52;13.80;;;;;;;1.45;52.88;100805.84;5070546;28;20025;-71
2021/01/26 03:30:50;;;;;;;25.00;11.95;;;;;;;1.46;52.69;100812.75;5072299;28;20037;-71
2021/01/26 03:33:23;;;;;;;23.02;12.32;;;;;;;1.47;52.59;100819.59;5093254;28;20486;-71
2021/01/26 03:35:49;;;;;;;22.38;11.80;;;;;;;1.45;52.91;100833.34;5072114;28;20024;-71
2021/01/26 03:38:19;;;;;;;22.48;12.25;;;;;;;1.62;52.30;100833.28;5071426;28;20056;-71
2021/01/26 03:40:45;;;;;;;22.70;12.65;;;;;;;1.74;52.35;100833.22;5068204;28;20028;-71
2021/01/26 03:43:11;;;;;;;25.90;12.45;;;;;;;1.30;53.23;100844.50;5070471;28;20059;-72
2021/01/26 03:45:36;;;;;;;24.50;12.35;;;;;;;1.51;52.54;100839.31;5067607;28;20404;-71
2021/01/26 03:48:14;;;;;;;23.25;12.13;;;;;;;1.56;52.19;100851.34;5074637;28;20032;-71
2021/01/26 03:51:04;;;;;;;25.13;13.07;;;;;;;1.45;52.83;100857.38;5071705;28;20757;-71
2021/01/26 03:53:45;;;;;;;23.85;12.52;;;;;;;1.38;52.99;100867.66;5067995;28;20035;-71
2021/01/26 03:56:19;;;;;;;22.60;12.88;;;;;;;1.47;53.04;100870.25;5072371;28;20032;-70
2021/01/26 03:58:55;;;;;;;25.92;13.00;;;;;;;1.46;52.78;100871.97;5072221;28;20040;-71
2021/01/26 04:01:35;;;;;;;29.38;13.73;;;;;;;1.49;52.67;100879.69;5090343;28;20043;-71
2021/01/26 04:04:25;;;;;;;25.88;13.65;;;;;;;1.43;53.02;100884.00;5073590;28;20025;-71
2021/01/26 04:06:53;;;;;;;26.50;13.15;;;;;;;1.35;53.17;100890.84;5068299;28;20059;-71
2021/01/26 04:09:23;;;;;;;27.70;12.73;;;;;;;1.39;52.89;100898.53;5072410;28;20028;-71
2021/01/26 04:12:07;;;;;;;19.27;10.35;;;;;;;1.61;52.48;100906.28;5069915;28;20025;-71
2021/01/26 04:14:45;;;;;;;24.50;12.73;;;;;;;1.61;52.24;100896.81;5047831;28;20073;-71
2021/01/26 04:17:16;;;;;;;31.88;12.63;;;;;;;1.43;52.78;100904.59;5068435;28;20102;-71
2021/01/26 04:19:48;;;;;;;25.00;12.13;;;;;;;1.69;52.05;100912.28;5086670;28;20035;-71
2021/01/26 04:22:15;;;;;;;22.50;10.88;;;;;;;1.70;52.14;100906.25;5072119;28;20035;-71
2021/01/26 04:24:41;;;;;;;21.50;11.00;;;;;;;1.75;51.97;100916.53;5072993;28;20119;-71
2021/01/26 04:27:11;;;;;;;23.05;10.45;;;;;;;1.86;51.37;100914.78;5068507;28;20103;-71
2021/01/26 04:29:37;;;;;;;20.02;10.15;;;;;;;1.81;51.48;100914.81;5088212;28;20028;-71
2021/01/26 04:32:03;;;;;;;20.23;10.68;;;;;;;1.81;51.28;100919.97;5072539;28;20401;-71
2021/01/26 04:34:28;;;;;;;19.63;10.30;;;;;;;1.87;50.56;100919.97;5054128;28;20027;-71
2021/01/26 04:36:54;;;;;;;22.15;10.80;;;;;;;1.80;51.34;100925.16;5089905;28;20525;-71
2021/01/26 04:39:19;;;;;;;19.10;9.05;;;;;;;1.84;51.10;100927.72;5069294;28;20032;-71
2021/01/26 04:41:53;;;;;;;17.50;8.85;;;;;;;1.76;51.08;100929.44;5089294;28;20027;-71
2021/01/26 04:44:44;;;;;;;22.33;9.30;;;;;;;1.65;51.21;100936.34;5071575;28;20032;-71
2021/01/26 04:47:23;;;;;;;17.80;8.45;;;;;;;1.73;51.07;100939.75;5072289;28;20119;-71
2021/01/26 04:50:26;;;;;;;22.27;9.07;;;;;;;1.76;51.04;100944.06;5086427;28;20036;-71
2021/01/26 04:53:13;;;;;;;19.45;9.68;;;;;;;1.77;51.06;100946.59;5087669;28;20035;-72
2021/01/26 04:56:00;;;;;;;20.58;9.98;;;;;;;1.67;51.33;100950.94;5067121;28;20465;-71
2021/01/26 04:58:40;;;;;;;22.60;10.32;;;;;;;1.71;51.63;100959.53;5065638;28;20050;-71
2021/01/26 05:01:37;;;;;;;22.85;10.65;;;;;;;1.78;51.63;100966.38;5057908;28;20123;-71
2021/01/26 05:04:12;;;;;;;20.88;11.20;;;;;;;1.79;51.52;100965.50;5061475;28;20515;-71
2021/01/26 05:07:00;;;;;;;21.02;9.75;;;;;;;1.81;51.33;100976.66;5068966;28;20036;-71
2021/01/26 05:09:40;;;;;;;20.50;10.20;;;;;;;1.88;51.38;100970.63;5070493;28;20740;-71
2021/01/26 05:12:08;;;;;;;24.08;11.70;;;;;;;1.71;51.72;100977.56;5068473;28;20119;-71
2021/01/26 05:14:39;;;;;;;23.10;10.25;;;;;;;1.65;51.41;100982.72;5080770;28;20028;-71
2021/01/26 05:17:31;;;;;;;24.13;12.23;;;;;;;1.71;51.76;100993.03;5069414;28;20615;-71
2021/01/26 05:20:02;;;;;;;;;;;;;;;1.87;51.03;100999.00;5082163;28;20039;-71
2021/01/26 05:22:39;;;;;;;20.98;10.82;;;;;;;1.86;51.16;100992.13;5065121;28;20293;-71
2021/01/26 05:25:09;;;;;;;25.80;12.00;;;;;;;1.85;51.47;101001.56;5062947;28;20036;-71
2021/01/26 05:27:35;;;;;;;25.92;11.75;;;;;;;1.75;51.54;101005.00;5080398;28;20363;-71
2021/01/26 05:30:04;;;;;;;20.63;11.15;;;;;;;1.85;51.22;101000.72;5085998;28;20028;-71
2021/01/26 05:32:30;;;;;;;24.05;12.35;;;;;;;1.72;51.28;100999.88;5062590;28;20085;-70
2021/01/26 05:34:56;;;;;;;21.48;10.48;;;;;;;1.76;51.53;100996.44;5068727;28;20456;-73
2021/01/26 05:37:22;;;;;;;24.40;11.10;;;;;;;1.66;51.09;101000.75;5071641;28;20353;-72
2021/01/26 05:39:59;;;;;;;24.90;11.65;;;;;;;1.77;50.58;101003.28;5072841;28;20029;-73
2021/01/26 05:42:25;;;;;;;22.98;10.48;;;;;;;1.49;51.05;101013.63;5085203;28;20720;-73
2021/01/26 05:45:03;;;;;;;21.70;10.75;;;;;;;1.26;51.32;101025.59;5066907;28;20409;-71
2021/01/26 05:47:31;;;;;;;26.27;12.27;;;;;;;1.11;51.49;101026.44;5070213;28;20024;-71
2021/01/26 05:49:58;;;;;;;21.30;10.48;;;;;;;0.95;51.71;101041.00;5065778;28;20504;-71
2021/01/26 05:52:50;;;;;;;22.05;11.35;;;;;;;0.81;51.54;101042.66;5071124;28;20029;-71
2021/01/26 05:55:23;;;;;;;21.92;10.45;;;;;;;0.65;51.66;101049.47;5063093;28;20072;-71
2021/01/26 05:57:50;;;;;;;21.83;9.50;;;;;;;0.56;51.85;101052.88;5081401;28;20036;-71
2021/01/26 06:00:28;;;;;;;24.67;11.43;;;;;;;0.41;51.84;101063.06;5068861;28;20098;-71
2021/01/26 06:03:22;;;;;;;24.08;10.98;;;;;;;0.31;52.12;101063.91;5080721;28;20112;-71
2021/01/26 06:06:04;;;;;;;24.15;10.63;;;;;;;0.22;52.17;101062.13;5066626;28;20557;-71
2021/01/26 06:08:32;;;;;;;18.08;9.35;;;;;;;0.14;52.28;101072.34;5067265;28;20605;-71
2021/01/26 06:10:58;;;;;;;24.92;9.93;;;;;;;0.10;52.27;101075.78;5067097;28;20490;-71
2021/01/26 06:13:30;;;;;;;22.23;10.32;;;;;;;0.14;52.04;101080.06;5071841;28;20097;-72
2021/01/26 06:16:19;;;;;;;24.17;11.00;;;;;;;-0.02;52.43;101088.53;5081353;28;20032;-71
2021/01/26 06:18:59;;;;;;;28.13;11.27;;;;;;;-0.02;52.66;101091.09;5085842;28;20068;-71
2021/01/26 06:21:26;;;;;;;27.17;11.32;;;;;;;0.06;52.74;101089.44;5073655;28;20400;-71
2021/01/26 06:23:52;;;;;;;24.08;10.82;;;;;;;0.17;52.37;101094.66;5069880;28;20112;-72
2021/01/26 06:26:17;;;;;;;24.25;11.95;;;;;;;0.09;52.71;101101.44;5070182;28;20623;-71
2021/01/26 06:28:46;;;;;;;22.17;10.60;;;;;;;0.12;52.82;101102.31;5066526;28;20043;-71
2021/01/26 06:32:00;;;;;;;27.15;10.65;;;;;;;0.14;52.83;101104.91;5063284;28;20866;-71
2021/01/26 06:34:44;;;;;;;21.23;11.25;;;;;;;0.19;52.58;101109.25;5050912;28;20036;-71
2021/01/26 06:37:26;;;;;;;23.98;11.15;;;;;;;0.16;52.33;101114.34;5068681;28;20060;-71
2021/01/26 06:40:22;;;;;;;23.65;11.35;;;;;;;0.05;52.64;101110.84;5066647;28;20489;-70
2021/01/26 06:43:03;;;;;;;34.67;12.63;;;;;;;0.01;52.72;101115.13;5068010;28;20028;-71
2021/01/26 06:46:09;;;;;;;30.73;13.15;;;;;;;0.00;52.89;101123.66;5070239;28;20032;-71
2021/01/26 06:48:58;;;;;;;21.08;12.10;;;;;;;0.04;52.70;101116.84;5010645;28;20046;-71
2021/01/26 06:52:05;;;;;;;30.58;12.15;;;;;;;-0.02;52.67;101124.50;5069730;28;20025;-71
2021/01/26 06:54:44;;;;;;;27.40;11.77;;;;;;;-0.18;52.82;101133.78;4998287;28;20550;-71
2021/01/26 06:57:31;;;;;;;22.08;11.68;;;;;;;-0.17;52.54;101133.81;5086507;28;20130;-71
2021/01/26 07:00:15;;;;;;;27.10;11.63;;;;;;;-0.11;52.65;101143.25;5067868;28;20028;-71
2021/01/26 07:03:23;;;;;;;25.55;11.57;;;;;;;-0.09;52.40;101156.13;5067790;28;20109;-72
2021/01/26 07:06:02;;;;;;;22.27;11.40;;;;;;;-0.04;52.25;101151.88;5069701;28;20024;-71
2021/01/26 07:08:40;;;;;;;20.35;10.05;;;;;;;-0.24;52.29;101149.13;5072061;28;20024;-71
2021/01/26 07:11:24;;;;;;;18.88;9.65;;;;;;;-0.29;52.18;101159.38;5065534;28;20025;-71
2021/01/26 07:13:57;;;;;;;23.08;9.93;;;;;;;-0.27;52.22;101164.53;5068946;28;20089;-71
2021/01/26 07:16:37;;;;;;;21.88;11.85;;;;;;;-0.33;52.07;101173.03;5065776;28;20032;-71
2021/01/26 07:19:25;;;;;;;23.80;11.13;;;;;;;-0.49;52.64;101179.72;5069762;28;20032;-73
2021/01/26 07:21:50;;;;;;;24.20;11.02;;;;;;;-0.47;52.67;101177.19;5072838;28;20040;-71
2021/01/26 07:24:27;;;;;;;23.38;10.75;;;;;;;-0.48;52.96;101190.84;5083419;28;20043;-73
2021/01/26 07:27:10;;;;;;;30.20;12.15;;;;;;;-0.50;52.86;101189.97;5093265;28;20036;-71
2021/01/26 07:29:44;;;;;;;24.60;10.10;;;;;;;-0.61;53.13;101195.84;5070877;28;20074;-71
2021/01/26 07:32:42;;;;;;;24.98;10.80;;;;;;;-0.61;53.10;101201.00;5071828;28;20112;-71
2021/01/26 07:35:27;;;;;;;28.92;12.25;;;;;;;-0.51;52.93;101196.81;5088966;28;20433;-71
2021/01/26 07:38:06;;;;;;;20.95;11.15;;;;;;;-0.45;52.95;101204.59;5079672;28;20040;-73
2021/01/26 07:40:35;;;;;;;29.05;14.15;;;;;;;-0.39;53.08;101211.50;5073405;28;20124;-71
2021/01/26 07:43:12;;;;;;;25.85;12.20;;;;;;;-0.39;53.20;101211.50;5067302;28;20074;-72
2021/01/26 07:45:49;;;;;;;25.75;10.98;;;;;;;-0.40;53.02;101214.91;5066982;28;20649;-71
2021/01/26 07:48:25;;;;;;;27.88;12.80;;;;;;;-0.48;53.47;101225.13;5067463;28;20028;-71
2021/01/26 07:50:57;;;;;;;30.17;12.90;;;;;;;-0.42;53.63;101222.59;5084714;28;20111;-71
2021/01/26 07:53:47;;;;;;;34.63;14.32;;;;;;;-0.16;53.51;101224.59;5072859;28;20096;-71
2021/01/26 07:56:31;;;;;;;30.55;13.75;;;;;;;0.04;53.02;101228.22;5067151;28;20032;-73
2021/01/26 07:58:57;;;;;;;30.90;13.00;;;;;;;0.39;52.54;101235.38;5083944;28;20056;-71
2021/01/26 08:01:25;;;;;;;26.75;11.95;;;;;;;0.82;51.44;101237.41;5068524;28;20056;-72
2021/01/26 08:03:52;;;;;;;29.02;12.43;;;;;;;1.32;51.08;101236.78;5082070;28;20041;-74
2021/01/26 08:06:36;;;;;;;31.40;13.32;;;;;;;1.73;50.31;101236.97;5052423;28;20032;-73
2021/01/26 08:09:25;;;;;;;24.25;12.13;;;;;;;2.12;49.32;101227.56;5068088;28;20056;-71
2021/01/26 08:12:04;;;;;;;22.42;11.70;;;;;;;1.91;48.12;101243.03;5059528;28;20040;-71
2021/01/26 08:14:35;;;;;;;27.42;11.00;;;;;;;1.57;49.30;101247.22;5050952;28;20073;-71
2021/01/26 08:17:04;;;;;;;23.80;11.07;;;;;;;1.27;50.37;101252.22;5068273;28;20124;-71
2021/01/26 08:19:41;;;;;;;29.33;12.90;;;;;;;1.30;51.59;101257.41;5071490;28;20104;-71
2021/01/26 08:22:37;;;;;;;31.88;13.85;;;;;;;2.23;50.19;101248.22;5083514;28;20389;-71
2021/01/26 08:25:25;;;;;;;27.25;14.32;;;;;;;2.88;49.18;101266.25;5038204;28;20131;-71
2021/01/26 08:27:55;;;;;;;21.73;10.35;;;;;;;3.21;48.25;101259.28;5065711;28;20029;-71
2021/01/26 08:30:39;;;;;;;25.40;9.88;;;;;;;3.00;47.84;101266.22;5082897;28;20040;-73
2021/01/26 08:33:15;;;;;;;21.90;9.70;;;;;;;2.74;47.84;101269.72;5049882;28;20193;-72
2021/01/26 08:35:40;;;;;;;17.15;9.07;;;;;;;3.65;47.56;101272.06;5068018;28;20088;-72
2021/01/26 08:38:06;;;;;;;23.95;10.60;;;;;;;5.31;45.15;101269.88;5066943;28;20032;-71
2021/01/26 08:40:32;;;;;;;19.17;9.93;;;;;;;7.04;40.08;101271.59;5085858;28;20394;-71
2021/01/26 08:42:59;;;;;;;19.08;8.35;;;;;;;8.19;36.48;101268.34;5067791;28;20446;-73
2021/01/26 08:45:25;;;;;;;20.20;9.73;;;;;;;8.86;35.71;101269.28;5082930;28;20031;-72
2021/01/26 08:47:59;;;;;;;16.88;7.57;;;;;;;9.21;34.93;101280.53;5067210;28;20795;-73
2021/01/26 08:50:53;;;;;;;13.88;7.28;;;;;;;7.55;36.80;101304.44;5065001;28;20028;-72
2021/01/26 08:53:30;;;;;;;8.60;6.00;;;;;;;4.45;42.63;101312.09;5052528;28;20097;-72
2021/01/26 08:56:02;;;;;;;6.93;4.47;;;;;;;3.49;45.03;101328.16;5081755;28;20478;-71
2021/01/26 08:58:43;;;;;;;7.63;3.78;;;;;;;2.50;47.66;101331.66;5066377;28;20056;-72
2021/01/26 09:01:35;;;;;;;9.00;3.85;;;;;;;2.30;48.16;101326.47;5067445;28;20111;-71
2021/01/26 09:04:12;;;;;;;4.65;3.30;;;;;;;2.13;49.35;101331.56;5072584;28;20098;-71
2021/01/26 09:06:38;;;;;;;5.72;2.78;;;;;;;1.98;50.04;101318.66;5069871;28;20457;-71
2021/01/26 09:09:04;;;;;;;7.35;2.60;;;;;;;1.90;49.99;101319.47;5065032;28;20036;-71
2021/01/26 09:11:52;;;;;;;5.90;1.73;;;;;;;1.96;50.39;101328.97;5059483;28;20036;-71
2021/01/26 09:14:42;;;;;;;5.03;2.47;;;;;;;1.98;50.87;101327.25;5047882;28;20040;-72
2021/01/26 09:17:12;;;;;;;4.03;1.75;;;;;;;2.18;50.82;101335.06;5063734;28;20048;-71
2021/01/26 09:19:46;;;;;;;7.57;2.30;;;;;;;2.26;50.67;101332.47;5070663;28;20028;-71
2021/01/26 09:22:17;;;;;;;4.57;1.77;;;;;;;2.27;50.46;101345.38;5067826;28;20032;-71
2021/01/26 09:24:42;;;;;;;5.10;2.38;;;;;;;2.34;50.61;101347.09;5082013;28;20024;-71
2021/01/26 09:27:24;;;;;;;6.10;2.47;;;;;;;3.28;50.88;101352.28;5066965;28;20417;-71
2021/01/26 09:30:08;;;;;;;7.85;2.45;;;;;;;3.29;48.25;101358.31;5068560;28;20596;-71
2021/01/26 09:32:38;;;;;;;6.18;2.00;;;;;;;3.33;48.61;101362.63;5081662;28;20625;-71
2021/01/26 09:35:11;;;;;;;7.80;2.38;;;;;;;4.17;48.69;101369.22;5085344;28;20024;-72
2021/01/26 09:37:37;;;;;;;9.02;2.70;;;;;;;5.02;45.79;101365.19;5066560;28;20032;-71
2021/01/26 09:40:10;;;;;;;7.22;2.20;;;;;;;5.53;43.44;101364.69;5066816;28;20028;-71
2021/01/26 09:42:36;;;;;;;6.20;1.98;;;;;;;5.65;42.77;101368.88;5053629;28;20036;-71
2021/01/26 09:45:10;;;;;;;2.83;1.67;;;;;;;5.11;44.13;101369.44;5067367;28;20120;-71
2021/01/26 09:47:36;;;;;;;9.40;1.02;;;;;;;4.71;45.08;101364.53;5063032;28;20029;-70
2021/01/26 09:50:12;;;;;;;2.80;0.82;;;;;;;4.29;45.91;101366.56;5079266;28;20031;-70
2021/01/26 09:52:39;;;;;;;4.95;0.70;;;;;;;3.90;47.78;101368.50;5076702;28;20063;-72
2021/01/26 09:55:09;;;;;;;2.92;1.38;;;;;;;4.52;47.35;101374.19;5064387;28;20036;-71
2021/01/26 09:57:35;;;;;;;7.05;3.33;;;;;;;4.52;45.68;101370.72;5061285;28;20035;-71
2021/01/26 10:00:05;;;;;;;5.40;2.10;;;;;;;5.04;46.62;101370.34;5068116;28;20116;-71
2021/01/26 10:02:32;;;;;;;3.63;1.48;;;;;;;4.78;45.19;101368.81;5067064;28;20420;-71
2021/01/26 10:04:58;;;;;;;4.43;1.20;;;;;;;5.76;45.66;101376.53;5061983;28;20029;-71
2021/01/26 10:07:24;;;;;;;3.08;0.90;;;;;;;5.71;43.91;101373.13;5069904;28;20101;-71
2021/01/26 10:09:50;;;;;;;5.65;1.70;;;;;;;6.14;41.82;101381.22;5066386;28;20466;-71
2021/01/26 10:12:28;;;;;;;3.35;0.70;;;;;;;6.17;42.88;101378.63;5065861;28;20497;-71
2021/01/26 10:15:26;;;;;;;3.92;0.95;;;;;;;6.74;42.63;101380.41;5065842;28;20045;-71
2021/01/26 10:17:54;;;;;;;2.10;1.00;;;;;;;6.60;41.62;101384.97;5080666;28;20793;-72
2021/01/26 10:20:29;;;;;;;2.08;0.90;;;;;;;6.83;42.21;101390.63;5066470;28;20441;-70
2021/01/26 10:23:11;;;;;;;3.20;1.02;;;;;;;6.91;41.48;101396.56;5080540;28;20057;-72
2021/01/26 10:25:39;;;;;;;4.18;1.20;;;;;;;7.28;40.63;101398.53;5060284;28;20627;-71
2021/01/26 10:28:11;;;;;;;2.45;1.10;;;;;;;6.82;41.08;101388.06;5058449;28;20024;-71
2021/01/26 10:30:44;;;;;;;2.65;1.67;;;;;;;6.55;43.19;101394.53;5060192;28;20056;-71
2021/01/26 10:33:10;;;;;;;2.10;0.95;;;;;;;6.58;41.65;101408.34;5064280;28;20036;-72
2021/01/26 10:35:38;;;;;;;7.68;4.55;;;;;;;6.39;42.33;101399.09;5061161;28;20438;-71
2021/01/26 10:38:26;;;;;;;16.50;8.25;;;;;;;7.47;40.59;101390.41;5063177;28;20032;-71
2021/01/26 10:41:18;;;;;;;3.65;2.30;;;;;;;7.35;42.00;101401.03;5043421;28;20596;-71
2021/01/26 10:43:43;;;;;;;7.38;3.17;;;;;;;7.81;40.90;101392.41;5061833;28;20024;-71
2021/01/26 10:46:12;;;;;;;7.68;3.50;;;;;;;8.00;40.99;101404.13;5060373;28;20037;-71
2021/01/26 10:48:43;;;;;;;4.75;2.90;;;;;;;8.03;39.73;101392.81;5075041;28;20043;-71
2021/01/26 10:51:29;;;;;;;10.35;5.60;;;;;;;8.23;40.44;101401.06;5066964;28;20036;-71
2021/01/26 10:53:55;;;;;;;10.02;5.38;;;;;;;7.59;39.73;101397.16;5080242;28;20036;-72
2021/01/26 10:56:21;;;;;;;12.25;7.25;;;;;;;7.49;41.00;101402.50;5068759;28;20028;-71
2021/01/26 10:58:48;;;;;;;5.43;2.92;;;;;;;7.81;40.57;101393.25;5063342;28;20048;-72
2021/01/26 11:01:19;;;;;;;6.43;3.20;;;;;;;7.46;40.35;101401.69;5067375;28;20047;-70
2021/01/26 11:03:45;;;;;;;8.00;3.88;;;;;;;7.50;40.50;101400.75;5051562;28;20063;-73
2021/01/26 11:06:10;;;;;;;8.25;3.55;;;;;;;7.27;40.21;101402.03;5066600;28;20389;-71
2021/01/26 11:08:36;;;;;;;4.80;2.10;;;;;;;7.28;40.07;101403.72;5066846;28;20070;-71
2021/01/26 11:11:02;;;;;;;5.65;3.88;;;;;;;7.53;39.59;101400.69;5067070;28;20740;-73
2021/01/26 11:13:28;;;;;;;4.65;2.22;;;;;;;6.91;41.42;101413.91;5072709;28;20028;-72
2021/01/26 11:16:46;;;;;;;10.13;3.85;;;;;;;6.83;41.31;101411.41;5095674;27;752946;-74
2021/01/26 11:19:12;;;;;;;5.30;2.60;;;;;;;6.74;41.45;101416.75;5101353;28;20039;-72
2021/01/26 11:21:38;;;;;;;3.65;2.13;;;;;;;7.33;40.42;101416.66;5097691;28;20024;-72
2021/01/26 11:24:03;;;;;;;10.50;2.55;;;;;;;7.22;40.56;101414.25;5100263;28;20050;-72
2021/01/26 11:26:29;;;;;;;4.93;2.03;;;;;;;7.02;41.41;101417.19;5103153;27;20024;-72
2021/01/26 11:28:54;;;;;;;3.03;2.28;;;;;;;6.80;42.64;101418.44;5100379;28;20020;-72
2021/01/26 11:31:20;;;;;;;7.25;2.50;;;;;;;7.78;41.03;101413.25;5102388;27;20448;-73
2021/01/26 11:33:46;;;;;;;4.97;1.88;;;;;;;9.18;39.05;101411.00;5115237;27;20059;-73
2021/01/26 11:36:12;;;;;;;3.72;1.73;;;;;;;9.24;37.01;101408.22;5091332;28;20055;-72
2021/01/26 11:38:38;;;;;;;4.90;1.02;;;;;;;9.40;38.16;101406.94;5096630;28;20074;-73
2021/01/26 11:41:04;;;;;;;3.60;1.65;;;;;;;8.03;39.50;101414.50;5101557;28;20028;-72
2021/01/26 11:43:33;;;;;;;1.83;0.45;;;;;;;7.81;39.19;101418.41;5107368;28;20118;-75
2021/01/26 11:45:59;;;;;;;8.35;1.42;;;;;;;7.87;39.88;101418.28;5101592;28;20058;-73
2021/01/26 11:48:25;;;;;;;0.20;0.10;;;;;;;7.20;40.19;101418.63;5099535;28;20050;-72
2021/01/26 11:50:52;;;;;;;3.17;0.57;;;;;;;7.08;40.27;101426.63;5098848;28;20031;-73
2021/01/26 11:53:20;;;;;;;1.73;0.20;;;;;;;6.50;42.19;101424.03;5093201;28;20163;-73